Time;durP1;ratioP1;P1;durP2;ratioP2;P2;SDS_P1;SDS_P2;PMS_P1;PMS_P2;Temp;Humidity;BMP_temperature;BMP_pressure;BME280_temperature;BME280_humidity;BME280_pressure;Samples;Min_cycle;Max_cycle;Signal;HPM_P1;HPM_P2
2022/12/17 13:08:04;;;;;;;77.30;32.95;;;;;;;-5.06;100.00;101420.47;20967918;28;20443;-72
2022/12/17 13:18:05;;;;;;;75.55;33.08;;;;;;;-5.01;100.00;101422.53;20968948;28;20052;-72
2022/12/17 13:28:07;;;;;;;72.78;31.73;;;;;;;-4.87;100.00;101407.19;20970449;28;20105;-71
2022/12/17 13:38:08;;;;;;;73.18;31.27;;;;;;;-5.36;100.00;101419.41;20969954;28;20044;-71
2022/12/17 13:48:09;;;;;;;76.63;33.10;;;;;;;-5.24;100.00;101425.28;20969644;28;20410;-72
2022/12/17 13:58:10;;;;;;;78.35;34.35;;;;;;;-5.08;100.00;101433.13;20972519;28;20118;-72
2022/12/17 14:08:12;;;;;;;70.85;32.00;;;;;;;-5.01;100.00;101435.31;20962327;28;20143;-71
2022/12/17 14:18:13;;;;;;;75.97;35.53;;;;;;;-5.19;100.00;101439.22;20962833;28;20044;-72
2022/12/17 14:28:14;;;;;;;80.57;34.97;;;;;;;-5.24;100.00;101432.94;20964427;28;20052;-74
2022/12/17 14:38:16;;;;;;;84.20;37.05;;;;;;;-5.32;100.00;101431.56;20954685;28;20048;-72
2022/12/17 14:58:57;;;;;;;84.13;34.88;;;;;;;-5.57;100.00;101445.28;20964580;28;20044;-72
2022/12/17 15:08:58;;;;;;;87.80;36.17;;;;;;;-5.68;100.00;101469.22;20949606;28;20063;-71
2022/12/17 15:19:00;;;;;;;80.55;35.53;;;;;;;-5.75;100.00;101470.50;20963138;28;20041;-72
2022/12/17 15:29:01;;;;;;;90.72;37.25;;;;;;;-5.88;100.00;101474.66;20965462;28;20102;-72
2022/12/17 15:39:05;;;;;;;92.72;34.45;;;;;;;-6.11;100.00;101478.22;20968700;28;20324;-73
2022/12/17 15:49:06;;;;;;;103.82;37.95;;;;;;;-6.27;100.00;101481.41;20973773;28;20102;-73
2022/12/17 15:59:07;;;;;;;119.95;42.03;;;;;;;-6.34;100.00;101482.63;20952376;28;20041;-73
2022/12/17 16:09:08;;;;;;;124.30;45.17;;;;;;;-6.32;100.00;101475.13;20973499;28;20048;-73
2022/12/17 16:19:10;;;;;;;129.95;41.28;;;;;;;-6.23;100.00;101473.16;20973923;28;20045;-73
2022/12/17 16:29:11;;;;;;;121.60;41.88;;;;;;;-6.25;100.00;101479.84;20974669;28;20167;-73
2022/12/17 16:39:12;;;;;;;140.02;45.88;;;;;;;-6.25;100.00;101479.84;20909863;28;20291;-73
2022/12/17 16:49:15;;;;;;;129.70;43.28;;;;;;;-6.37;100.00;101502.81;20893457;28;20057;-73
2022/12/17 16:59:16;;;;;;;131.40;40.03;;;;;;;-6.31;100.00;101510.00;20893793;28;20060;-73
2022/12/17 17:09:17;;;;;;;132.73;44.92;;;;;;;-6.35;100.00;101510.56;20966178;28;20054;-73
2022/12/17 17:19:19;;;;;;;135.77;45.05;;;;;;;-6.33;100.00;101507.31;20973218;28;20493;-71
2022/12/17 17:39:31;;;;;;;141.80;45.42;;;;;;;-6.38;100.00;101513.75;20672243;28;20488;-69
2022/12/17 17:49:33;;;;;;;156.80;45.13;;;;;;;-6.42;100.00;101526.19;20704614;28;20057;-67
2022/12/17 17:59:34;;;;;;;161.35;48.78;;;;;;;-6.32;100.00;101526.06;20715281;28;20107;-67
2022/12/17 18:09:36;;;;;;;161.55;46.83;;;;;;;-6.21;100.00;101540.44;20700103;28;20104;-67
2022/12/17 18:19:37;;;;;;;147.35;49.65;;;;;;;-6.31;100.00;101536.38;20704708;28;20534;-67
2022/12/17 18:29:38;;;;;;;167.10;50.20;;;;;;;-6.25;100.00;101544.44;20720670;28;20046;-68
2022/12/17 18:39:39;;;;;;;163.35;51.97;;;;;;;-6.30;100.00;101552.53;20718529;28;20050;-67
2022/12/17 18:49:41;;;;;;;174.75;52.08;;;;;;;-6.37;100.00;101555.41;20698497;28;20077;-68
2022/12/17 18:59:42;;;;;;;178.00;56.42;;;;;;;-6.40;100.00;101560.31;20718458;28;20112;-67
2022/12/17 19:09:43;;;;;;;150.95;45.47;;;;;;;-6.63;100.00;101572.28;20719156;28;20053;-67
2022/12/17 19:19:45;;;;;;;151.27;48.00;;;;;;;-6.67;100.00;101565.19;20707843;28;20054;-67
2022/12/17 19:29:46;;;;;;;142.90;47.42;;;;;;;-6.86;100.00;101587.56;20693854;28;20057;-68
2022/12/17 19:39:50;;;;;;;150.10;45.80;;;;;;;-6.89;100.00;101572.97;20733118;28;20074;-68
2022/12/17 19:49:51;;;;;;;156.60;49.35;;;;;;;-7.01;100.00;101572.94;20730936;28;20050;-68
2022/12/17 19:59:52;;;;;;;142.35;43.58;;;;;;;-7.09;100.00;101568.97;20731693;28;20056;-67
2022/12/17 20:09:54;;;;;;;145.82;45.85;;;;;;;-7.10;100.00;101577.34;20730485;28;20065;-68
2022/12/17 20:19:55;;;;;;;153.85;51.42;;;;;;;-7.16;100.00;101569.28;20700593;28;20101;-67
2022/12/17 20:29:58;;;;;;;128.45;44.20;;;;;;;-7.13;100.00;101584.78;20728839;28;20080;-67
2022/12/17 20:39:59;;;;;;;153.45;44.40;;;;;;;-7.20;100.00;101571.47;20704832;28;20057;-67
2022/12/17 20:50:00;;;;;;;151.70;45.88;;;;;;;-7.30;100.00;101575.00;20704268;28;20054;-67
2022/12/17 21:00:02;;;;;;;123.18;41.53;;;;;;;-7.31;100.00;101563.06;20729489;28;20057;-67
2022/12/17 21:10:03;;;;;;;133.90;43.92;;;;;;;-7.27;100.00;101572.69;20741663;28;20050;-67
2022/12/17 21:20:04;;;;;;;143.70;45.28;;;;;;;-7.41;100.00;101583.50;20730961;28;20367;-67
2022/12/17 21:30:11;;;;;;;147.88;44.85;;;;;;;-7.49;100.00;101572.75;20716478;28;20062;-67
2022/12/17 21:40:13;;;;;;;143.52;46.47;;;;;;;-7.43;100.00;101587.56;20730861;28;20422;-68
2022/12/17 21:50:15;;;;;;;146.70;44.25;;;;;;;-7.57;100.00;101592.53;20729569;28;20050;-68
2022/12/17 22:00:16;;;;;;;139.48;39.00;;;;;;;-7.54;100.00;101612.19;20728039;28;20467;-67
2022/12/17 22:10:17;;;;;;;140.32;41.55;;;;;;;-7.62;100.00;101603.97;20729081;28;20498;-69
2022/12/17 22:20:38;;;;;;;132.45;38.78;;;;;;;-7.71;100.00;101608.41;20728884;28;20124;-70
2022/12/17 22:41:05;;;;;;;126.05;36.38;;;;;;;-7.82;100.00;101606.66;20726563;28;20100;-70
2022/12/17 22:51:26;;;;;;;130.23;38.88;;;;;;;-7.89;100.00;101624.75;20732400;28;20112;-69
2022/12/17 23:01:42;;;;;;;113.90;35.28;;;;;;;-7.90;100.00;101625.53;20742256;28;20081;-69
2022/12/17 23:11:43;;;;;;;115.60;33.95;;;;;;;-8.01;100.00;101624.69;20749834;28;20108;-69
2022/12/17 23:21:44;;;;;;;118.93;35.97;;;;;;;-8.03;100.00;101613.53;20748754;28;20477;-69
2022/12/17 23:31:46;;;;;;;105.15;34.35;;;;;;;-8.18;100.00;101615.75;20829864;22;20063;-74
2022/12/17 23:41:47;;;;;;;121.43;36.63;;;;;;;-8.12;100.00;101618.78;21079782;28;20051;-72
2022/12/17 23:51:49;;;;;;;120.85;38.15;;;;;;;-8.16;100.00;101609.13;21080173;28;20416;-74
